createdAt,value
2014-07-23T00:00:07.213Z,1
2014-07-23T00:00:25.543Z,0
2014-07-23T00:00:43.871Z,0
2014-07-23T00:01:02.199Z,0
2014-07-23T00:01:20.529Z,0
2014-07-23T00:01:38.857Z,0
2014-07-23T00:01:57.186Z,0
2014-07-23T00:02:15.516Z,0
2014-07-23T00:02:33.844Z,0
2014-07-23T00:02:52.172Z,0
2014-07-23T00:03:10.500Z,1
2014-07-23T00:03:28.830Z,0
2014-07-23T00:03:47.361Z,2
2014-07-23T00:04:05.486Z,0
2014-07-23T00:04:23.817Z,0
2014-07-23T00:04:42.145Z,1
2014-07-23T00:05:00.473Z,0
2014-07-23T00:05:18.802Z,0
2014-07-23T00:05:37.130Z,0
2014-07-23T00:05:55.443Z,0
2014-07-23T00:06:13.774Z,0
2014-07-23T00:06:32.102Z,0
2014-07-23T00:06:50.430Z,0
2014-07-23T00:07:08.758Z,0
2014-07-23T00:07:27.087Z,0
2014-07-23T00:07:45.415Z,0
2014-07-23T00:08:03.743Z,0
2014-07-23T00:08:22.075Z,0
2014-07-23T00:08:40.387Z,0
2014-07-23T00:08:58.715Z,0
2014-07-23T00:09:17.044Z,0
2014-07-23T00:09:35.372Z,0
2014-07-23T00:09:53.701Z,0
2014-07-23T00:10:12.029Z,0
2014-07-23T00:10:30.359Z,0
2014-07-23T00:10:48.687Z,0
2014-07-23T00:11:07.015Z,0
2014-07-23T00:11:25.345Z,0
2014-07-23T00:11:43.673Z,0
2014-07-23T00:12:02.001Z,0
2014-07-23T00:12:20.332Z,0
2014-07-23T00:12:38.660Z,0
2014-07-23T00:12:56.988Z,0
2014-07-23T00:13:15.316Z,0
2014-07-23T00:13:33.646Z,0
2014-07-23T00:13:51.974Z,0
2014-07-23T00:14:10.490Z,0
2014-07-23T00:14:28.820Z,0
2014-07-23T00:14:46.961Z,0
2014-07-23T00:15:05.273Z,0
2014-07-23T00:15:23.604Z,0
2014-07-23T00:15:41.932Z,0
2014-07-23T00:16:00.260Z,0
2014-07-23T00:16:18.589Z,0
2014-07-23T00:16:36.919Z,0
2014-07-23T00:16:55.247Z,0
2014-07-23T00:17:13.559Z,1
2014-07-23T00:17:31.888Z,0
2014-07-23T00:17:50.217Z,0
2014-07-23T00:18:08.545Z,0
2014-07-23T00:18:26.873Z,0
2014-07-23T00:18:45.203Z,0
2014-07-23T00:19:03.531Z,0
2014-07-23T00:19:21.859Z,0
2014-07-23T00:19:40.189Z,0
2014-07-23T00:19:58.517Z,0
2014-07-23T00:20:16.846Z,0
2014-07-23T00:20:35.174Z,0
2014-07-23T00:20:53.504Z,0
2014-07-23T00:21:11.832Z,0
2014-07-23T00:21:30.160Z,0
2014-07-23T00:21:48.491Z,0
2014-07-23T00:22:06.819Z,0
2014-07-23T00:22:25.147Z,0
2014-07-23T00:22:43.476Z,0
2014-07-23T00:23:01.789Z,0
2014-07-23T00:23:20.133Z,0
2014-07-23T00:23:38.461Z,0
2014-07-23T00:23:56.791Z,0
2014-07-23T00:24:15.119Z,0
2014-07-23T00:24:33.447Z,0
2014-07-23T00:24:51.763Z,0
2014-07-23T00:25:10.091Z,0
2014-07-23T00:25:28.419Z,0
2014-07-23T00:25:46.747Z,0
2014-07-23T00:26:05.077Z,0
2014-07-23T00:26:23.405Z,0
2014-07-23T00:26:41.734Z,0
2014-07-23T00:27:00.063Z,0
2014-07-23T00:27:18.391Z,1
2014-07-23T00:27:36.719Z,0
2014-07-23T00:27:55.049Z,0
2014-07-23T00:28:13.377Z,0
2014-07-23T00:28:31.705Z,0
2014-07-23T00:28:50.035Z,0
2014-07-23T00:29:08.364Z,0
2014-07-23T00:29:26.692Z,0
2014-07-23T00:29:45.020Z,0
2014-07-23T00:30:03.350Z,0
2014-07-23T00:30:21.678Z,0
2014-07-23T00:30:40.194Z,0
2014-07-23T00:30:58.320Z,0
2014-07-23T00:31:16.648Z,0
2014-07-23T00:31:34.976Z,0
2014-07-23T00:31:53.307Z,0
2014-07-23T00:32:11.620Z,0
2014-07-23T00:32:29.948Z,0
2014-07-23T00:32:48.276Z,0
2014-07-23T00:33:06.605Z,0
2014-07-23T00:33:24.933Z,0
2014-07-23T00:33:43.261Z,0
2014-07-23T00:34:01.607Z,0
2014-07-23T00:34:19.919Z,0
2014-07-23T00:34:38.248Z,0
2014-07-23T00:34:56.578Z,0
2014-07-23T00:35:14.906Z,0
2014-07-23T00:35:33.234Z,0
2014-07-23T00:35:51.562Z,0
2014-07-23T00:36:09.910Z,0
2014-07-23T00:36:28.238Z,0
2014-07-23T00:36:46.566Z,0
2014-07-23T00:37:04.936Z,1
2014-07-23T00:37:23.264Z,0
2014-07-23T00:37:41.592Z,0
2014-07-23T00:37:59.943Z,0
2014-07-23T00:38:18.271Z,0
2014-07-23T00:38:36.600Z,0
2014-07-23T00:38:54.928Z,0
2014-07-23T00:39:13.295Z,0
2014-07-23T00:39:31.623Z,0
2014-07-23T00:39:49.951Z,0
2014-07-23T00:40:08.319Z,0
2014-07-23T00:40:26.647Z,0
2014-07-23T00:40:44.975Z,0
2014-07-23T00:41:03.329Z,1
2014-07-23T00:41:21.641Z,0
2014-07-23T00:41:39.969Z,0
2014-07-23T00:41:58.297Z,0
2014-07-23T00:42:16.641Z,0
2014-07-23T00:42:34.970Z,0
2014-07-23T00:42:53.298Z,0
2014-07-23T00:43:11.642Z,0
2014-07-23T00:43:29.970Z,0
2014-07-23T00:43:48.298Z,0
2014-07-23T00:44:06.641Z,0
2014-07-23T00:44:24.969Z,0
2014-07-23T00:44:43.297Z,0
2014-07-23T00:45:01.626Z,0
2014-07-23T00:45:19.969Z,0
2014-07-23T00:45:38.281Z,0
2014-07-23T00:45:56.609Z,0
2014-07-23T00:46:14.948Z,0
2014-07-23T00:46:33.277Z,0
2014-07-23T00:46:51.605Z,0
2014-07-23T00:47:10.143Z,0
2014-07-23T00:47:28.268Z,0
2014-07-23T00:47:46.580Z,1
2014-07-23T00:48:04.909Z,0
2014-07-23T00:48:23.244Z,0
2014-07-23T00:48:41.572Z,0
2014-07-23T00:49:00.103Z,0
2014-07-23T00:49:18.234Z,0
2014-07-23T00:49:36.562Z,0
2014-07-23T00:49:54.890Z,0
2014-07-23T00:50:13.210Z,0
2014-07-23T00:50:31.538Z,0
2014-07-23T00:50:49.866Z,0
2014-07-23T00:51:08.194Z,0
2014-07-23T00:51:26.526Z,0
2014-07-23T00:51:44.854Z,0
2014-07-23T00:52:03.183Z,0
2014-07-23T00:52:21.515Z,0
2014-07-23T00:52:39.843Z,1
2014-07-23T00:52:58.171Z,0
2014-07-23T00:53:16.503Z,0
2014-07-23T00:53:34.831Z,0
2014-07-23T00:53:53.159Z,0
2014-07-23T00:54:11.487Z,0
2014-07-23T00:54:29.820Z,0
2014-07-23T00:54:48.132Z,0
2014-07-23T00:55:06.460Z,0
2014-07-23T00:55:24.792Z,0
2014-07-23T00:55:43.120Z,0
2014-07-23T00:56:01.449Z,0
2014-07-23T00:56:19.780Z,1
2014-07-23T00:56:38.108Z,0
2014-07-23T00:56:56.420Z,0
2014-07-23T00:57:14.750Z,0
2014-07-23T00:57:33.079Z,0
2014-07-23T00:57:51.407Z,0
2014-07-23T00:58:09.735Z,0
2014-07-23T00:58:28.050Z,0
2014-07-23T00:58:46.378Z,0
2014-07-23T00:59:04.707Z,0
2014-07-23T00:59:23.038Z,0
2014-07-23T00:59:41.366Z,0
2014-07-23T00:59:59.694Z,0
2014-07-23T01:00:18.024Z,0
2014-07-23T01:00:36.352Z,0
2014-07-23T01:00:54.680Z,0
2014-07-23T01:01:12.993Z,0
2014-07-23T01:01:31.324Z,1
2014-07-23T01:01:49.652Z,0
2014-07-23T01:02:07.980Z,0
2014-07-23T01:02:26.310Z,0
2014-07-23T01:02:44.638Z,0
2014-07-23T01:03:02.967Z,0
2014-07-23T01:03:21.296Z,0
2014-07-23T01:03:39.608Z,0
2014-07-23T01:03:57.936Z,0
2014-07-23T01:04:16.266Z,0
2014-07-23T01:04:34.595Z,1
2014-07-23T01:04:52.923Z,0
2014-07-23T01:05:11.251Z,0
2014-07-23T01:05:29.581Z,0
2014-07-23T01:05:47.909Z,1
2014-07-23T01:06:06.222Z,0
2014-07-23T01:06:24.552Z,0
2014-07-23T01:06:42.880Z,0
2014-07-23T01:07:01.208Z,0
2014-07-23T01:07:19.538Z,0
2014-07-23T01:07:37.866Z,0
2014-07-23T01:07:56.194Z,0
2014-07-23T01:08:14.509Z,0
2014-07-23T01:08:32.837Z,1
2014-07-23T01:08:51.165Z,1
2014-07-23T01:09:09.493Z,1
2014-07-23T01:09:27.823Z,0
2014-07-23T01:09:46.151Z,1
2014-07-23T01:10:04.480Z,1
2014-07-23T01:10:22.810Z,0
2014-07-23T01:10:41.122Z,0
2014-07-23T01:10:59.450Z,1
2014-07-23T01:11:17.983Z,0
2014-07-23T01:11:36.108Z,0
2014-07-23T01:11:54.436Z,0
2014-07-23T01:12:12.779Z,0
2014-07-23T01:12:31.094Z,1
2014-07-23T01:12:49.422Z,0
2014-07-23T01:13:07.750Z,0
2014-07-23T01:13:26.080Z,1
2014-07-23T01:13:44.393Z,1
2014-07-23T01:14:02.721Z,0
2014-07-23T01:14:21.052Z,0
2014-07-23T01:14:39.380Z,0
2014-07-23T01:14:57.708Z,0
2014-07-23T01:15:16.036Z,0
2014-07-23T01:15:34.569Z,0
2014-07-23T01:15:52.694Z,0
2014-07-23T01:16:11.022Z,0
2014-07-23T01:16:29.336Z,0
2014-07-23T01:16:47.664Z,0
2014-07-23T01:17:06.008Z,0
2014-07-23T01:17:24.323Z,0
2014-07-23T01:17:42.854Z,0
2014-07-23T01:18:00.979Z,1
2014-07-23T01:18:19.307Z,1
2014-07-23T01:18:37.637Z,0
2014-07-23T01:18:55.965Z,0
2014-07-23T01:19:14.293Z,0
2014-07-23T01:19:32.624Z,0
2014-07-23T01:19:50.952Z,0
2014-07-23T01:20:09.280Z,1
2014-07-23T01:20:27.795Z,1
2014-07-23T01:20:45.938Z,0
2014-07-23T01:21:04.251Z,0
2014-07-23T01:21:22.579Z,0
2014-07-23T01:21:40.910Z,0
2014-07-23T01:21:59.238Z,1
2014-07-23T01:22:17.566Z,0
2014-07-23T01:22:35.894Z,0
2014-07-23T01:22:54.224Z,0
2014-07-23T01:23:12.756Z,0
2014-07-23T01:23:30.881Z,0
2014-07-23T01:23:49.210Z,0
2014-07-23T01:24:07.538Z,0
2014-07-23T01:24:25.866Z,0
2014-07-23T01:24:44.194Z,0
2014-07-23T01:25:02.525Z,0
2014-07-23T01:25:20.853Z,0
2014-07-23T01:25:39.181Z,1
2014-07-23T01:25:57.512Z,1
2014-07-23T01:26:15.840Z,0
2014-07-23T01:26:34.152Z,0
2014-07-23T01:26:52.480Z,1
2014-07-23T01:27:10.809Z,1
2014-07-23T01:27:29.138Z,1
2014-07-23T01:27:47.466Z,1
2014-07-23T01:28:05.780Z,1
2014-07-23T01:28:24.124Z,1
2014-07-23T01:28:42.436Z,1
2014-07-23T01:29:00.765Z,1
2014-07-23T01:29:19.096Z,1
2014-07-23T01:29:37.424Z,1
2014-07-23T01:29:55.752Z,1
2014-07-23T01:30:14.081Z,0
2014-07-23T01:30:32.409Z,0
2014-07-23T01:30:50.722Z,0
2014-07-23T01:31:09.050Z,0
2014-07-23T01:31:27.381Z,0
2014-07-23T01:31:45.709Z,1
2014-07-23T01:32:04.037Z,0
2014-07-23T01:32:22.367Z,0
2014-07-23T01:32:40.680Z,0
2014-07-23T01:32:59.008Z,1
2014-07-23T01:33:17.338Z,0
2014-07-23T01:33:35.666Z,0
2014-07-23T01:33:54.197Z,0
2014-07-23T01:34:12.322Z,0
2014-07-23T01:34:30.637Z,1
2014-07-23T01:34:48.965Z,1
2014-07-23T01:35:07.293Z,0
2014-07-23T01:35:25.623Z,1
2014-07-23T01:35:43.951Z,0
2014-07-23T01:36:02.280Z,1
2014-07-23T01:36:20.609Z,0
2014-07-23T01:36:38.937Z,0
2014-07-23T01:36:57.265Z,0
2014-07-23T01:37:15.595Z,0
2014-07-23T01:37:33.908Z,0
2014-07-23T01:37:52.236Z,1
2014-07-23T01:38:10.564Z,0
2014-07-23T01:38:28.894Z,1
2014-07-23T01:38:47.222Z,0
2014-07-23T01:39:05.550Z,0
2014-07-23T01:39:23.880Z,0
2014-07-23T01:39:42.208Z,0
2014-07-23T01:40:00.537Z,0
2014-07-23T01:40:18.867Z,0
2014-07-23T01:40:37.195Z,0
2014-07-23T01:40:55.523Z,0
2014-07-23T01:41:13.851Z,0
2014-07-23T01:41:32.181Z,0
2014-07-23T01:41:50.525Z,0
2014-07-23T01:42:08.837Z,0
2014-07-23T01:42:27.168Z,0
2014-07-23T01:42:45.511Z,0
2014-07-23T01:43:03.824Z,0
2014-07-23T01:43:22.154Z,1
2014-07-23T01:43:40.482Z,1
2014-07-23T01:43:58.810Z,0
2014-07-23T01:44:17.139Z,1
2014-07-23T01:44:35.467Z,1
2014-07-23T01:44:53.796Z,0
2014-07-23T01:45:12.124Z,0
2014-07-23T01:45:30.470Z,1
2014-07-23T01:45:48.783Z,1
2014-07-23T01:46:07.111Z,0
2014-07-23T01:46:25.440Z,1
2014-07-23T01:46:43.768Z,1
2014-07-23T01:47:02.096Z,1
2014-07-23T01:47:20.428Z,1
2014-07-23T01:47:38.756Z,1
2014-07-23T01:47:57.084Z,0
2014-07-23T01:48:15.412Z,1
2014-07-23T01:48:33.742Z,1
2014-07-23T01:48:52.070Z,1
2014-07-23T01:49:10.398Z,1
2014-07-23T01:49:28.727Z,1
2014-07-23T01:49:47.056Z,1
2014-07-23T01:50:05.384Z,1
2014-07-23T01:50:23.712Z,1
2014-07-23T01:50:42.027Z,1
2014-07-23T01:51:00.355Z,1
2014-07-23T01:51:18.684Z,1
2014-07-23T01:51:37.013Z,1
2014-07-23T01:51:55.341Z,1
2014-07-23T01:52:13.669Z,1
2014-07-23T01:52:32.000Z,1
2014-07-23T01:52:50.313Z,1
2014-07-23T01:53:08.641Z,1
2014-07-23T01:53:26.969Z,1
2014-07-23T01:53:45.298Z,1
2014-07-23T01:54:03.626Z,1
2014-07-23T01:54:21.954Z,1
2014-07-23T01:54:40.285Z,1
2014-07-23T01:54:58.817Z,1
2014-07-23T01:55:16.942Z,1
2014-07-23T01:55:35.271Z,1
2014-07-23T01:55:53.599Z,1
2014-07-23T01:56:12.161Z,1
2014-07-23T01:56:30.489Z,1
2014-07-23T01:56:48.820Z,1
2014-07-23T01:57:07.366Z,1
2014-07-23T01:57:25.507Z,1
2014-07-23T01:57:43.838Z,1
2014-07-23T01:58:02.151Z,1
2014-07-23T01:58:20.479Z,1
2014-07-23T01:58:38.808Z,1
2014-07-23T01:58:57.136Z,1
2014-07-23T01:59:15.464Z,1
2014-07-23T01:59:33.792Z,1
2014-07-23T01:59:52.122Z,1
2014-07-23T02:00:10.451Z,1
2014-07-23T02:00:28.779Z,1
2014-07-23T02:00:47.109Z,1
2014-07-23T02:01:05.437Z,1
2014-07-23T02:01:23.765Z,1
2014-07-23T02:01:42.095Z,1
2014-07-23T02:02:00.423Z,2
2014-07-23T02:02:18.751Z,1
2014-07-23T02:02:37.082Z,1
2014-07-23T02:02:55.410Z,1
2014-07-23T02:03:13.738Z,1
2014-07-23T02:03:32.050Z,1
2014-07-23T02:03:50.380Z,1
2014-07-23T02:04:08.709Z,1
2014-07-23T02:04:27.037Z,1
2014-07-23T02:04:45.367Z,1
2014-07-23T02:05:03.695Z,2
2014-07-23T02:05:22.023Z,2
2014-07-23T02:05:40.353Z,2
2014-07-23T02:05:58.681Z,2
2014-07-23T02:06:17.009Z,2
2014-07-23T02:06:35.338Z,2
2014-07-23T02:06:53.668Z,2
2014-07-23T02:07:12.199Z,2
2014-07-23T02:07:30.324Z,2
2014-07-23T02:07:48.638Z,2
2014-07-23T02:08:06.982Z,2
2014-07-23T02:08:25.310Z,2
2014-07-23T02:08:43.624Z,2
2014-07-23T02:09:01.952Z,2
2014-07-23T02:09:20.296Z,2
2014-07-23T02:09:38.608Z,2
2014-07-23T02:09:56.939Z,2
2014-07-23T02:10:15.267Z,2
2014-07-23T02:10:33.596Z,2
2014-07-23T02:10:51.926Z,2
2014-07-23T02:11:10.254Z,3
2014-07-23T02:11:28.582Z,3
2014-07-23T02:11:46.912Z,3
2014-07-23T02:12:05.225Z,3
2014-07-23T02:12:23.553Z,3
2014-07-23T02:12:41.881Z,3
2014-07-23T02:13:00.211Z,3
2014-07-23T02:13:18.539Z,3
2014-07-23T02:13:36.867Z,3
2014-07-23T02:13:55.197Z,3
2014-07-23T02:14:13.525Z,3
2014-07-23T02:14:31.854Z,3
2014-07-23T02:14:50.168Z,3
2014-07-23T02:15:08.496Z,4
2014-07-23T02:15:26.824Z,4
2014-07-23T02:15:45.152Z,4
2014-07-23T02:16:03.482Z,4
2014-07-23T02:16:21.810Z,4
2014-07-23T02:16:40.138Z,4
2014-07-23T02:16:58.469Z,4
2014-07-23T02:17:16.797Z,5
2014-07-23T02:17:35.125Z,5
2014-07-23T02:17:53.658Z,5
2014-07-23T02:18:11.783Z,5
2014-07-23T02:18:30.112Z,5
2014-07-23T02:18:48.440Z,5
2014-07-23T02:19:06.957Z,6
2014-07-23T02:19:25.082Z,6
2014-07-23T02:19:43.410Z,6
2014-07-23T02:20:01.741Z,6
2014-07-23T02:20:20.069Z,6
2014-07-23T02:20:38.397Z,7
2014-07-23T02:20:56.725Z,7
2014-07-23T02:21:15.054Z,7
2014-07-23T02:21:33.382Z,7
2014-07-23T02:21:51.710Z,8
2014-07-23T02:22:10.041Z,8
2014-07-23T02:22:28.370Z,8
2014-07-23T02:22:46.698Z,8
2014-07-23T02:23:05.027Z,9
2014-07-23T02:23:23.355Z,9
2014-07-23T02:23:41.683Z,9
2014-07-23T02:24:00.011Z,10
2014-07-23T02:24:18.341Z,10
2014-07-23T02:24:36.669Z,10
2014-07-23T02:24:54.998Z,11
2014-07-23T02:25:13.328Z,11
2014-07-23T02:25:31.656Z,12
2014-07-23T02:25:49.984Z,12
2014-07-23T02:26:08.298Z,12
2014-07-23T02:26:26.642Z,13
2014-07-23T02:26:44.970Z,14
2014-07-23T02:27:03.298Z,14
2014-07-23T02:27:21.644Z,14
2014-07-23T02:27:39.957Z,15
2014-07-23T02:27:58.285Z,15
2014-07-23T02:28:16.631Z,16
2014-07-23T02:28:35.349Z,17
2014-07-23T02:28:53.287Z,17
2014-07-23T02:29:11.617Z,18
2014-07-23T02:29:29.929Z,19
2014-07-23T02:29:48.273Z,19
2014-07-23T02:30:06.601Z,20
2014-07-23T02:30:24.931Z,21
2014-07-23T02:30:43.260Z,22
2014-07-23T02:31:01.588Z,22
2014-07-23T02:31:19.918Z,23
2014-07-23T02:31:38.246Z,24
2014-07-23T02:31:56.574Z,25
2014-07-23T02:32:14.904Z,26
2014-07-23T02:32:33.232Z,27
2014-07-23T02:32:51.560Z,28
2014-07-23T02:33:09.889Z,29
2014-07-23T02:33:28.219Z,30
2014-07-23T02:33:46.547Z,31
2014-07-23T02:34:04.875Z,33
2014-07-23T02:34:23.204Z,34
2014-07-23T02:34:41.532Z,35
2014-07-23T02:34:59.860Z,37
2014-07-23T02:35:18.190Z,38
2014-07-23T02:35:36.519Z,40
2014-07-23T02:35:54.862Z,41
2014-07-23T02:36:13.192Z,43
2014-07-23T02:36:31.521Z,44
2014-07-23T02:36:49.849Z,46
2014-07-23T02:37:08.177Z,48
2014-07-23T02:37:26.508Z,49
2014-07-23T02:37:44.836Z,51
2014-07-23T02:38:03.164Z,53
2014-07-23T02:38:21.478Z,55
2014-07-23T02:38:39.821Z,58
2014-07-23T02:38:58.150Z,60
2014-07-23T02:39:16.481Z,62
2014-07-23T02:39:34.809Z,64
2014-07-23T02:39:53.137Z,67
2014-07-23T02:40:11.465Z,69
2014-07-23T02:40:29.794Z,72
2014-07-23T02:40:48.122Z,75
2014-07-23T02:41:06.450Z,78
2014-07-23T02:41:24.796Z,80
2014-07-23T02:41:43.109Z,83
2014-07-23T02:42:01.452Z,87
2014-07-23T02:42:19.783Z,90
2014-07-23T02:42:38.111Z,93
2014-07-23T02:42:56.439Z,96
2014-07-23T02:43:14.767Z,99
2014-07-23T02:43:33.114Z,103
2014-07-23T02:43:51.442Z,106
2014-07-23T02:44:09.770Z,110
2014-07-23T02:44:28.099Z,114
2014-07-23T02:44:46.443Z,118
2014-07-23T02:45:04.771Z,122
2014-07-23T02:45:23.099Z,126
2014-07-23T02:45:41.429Z,130
2014-07-23T02:45:59.757Z,134
2014-07-23T02:46:18.289Z,139
2014-07-23T02:46:36.416Z,143
2014-07-23T02:46:54.744Z,147
2014-07-23T02:47:13.072Z,152
2014-07-23T02:47:31.400Z,157
2014-07-23T02:47:49.731Z,163
2014-07-23T02:48:08.075Z,166
2014-07-23T02:48:26.403Z,171
2014-07-23T02:48:44.732Z,176
2014-07-23T02:49:03.060Z,181
2014-07-23T02:49:21.388Z,186
2014-07-23T02:49:39.716Z,191
2014-07-23T02:49:58.047Z,196
2014-07-23T02:50:16.390Z,202
2014-07-23T02:50:34.718Z,207
2014-07-23T02:50:53.049Z,212
2014-07-23T02:51:11.377Z,218
2014-07-23T02:51:29.705Z,224
2014-07-23T02:51:48.033Z,229
2014-07-23T02:52:06.380Z,235
2014-07-23T02:52:24.708Z,241
2014-07-23T02:52:43.036Z,247
2014-07-23T02:53:01.366Z,253
2014-07-23T02:53:19.694Z,259
2014-07-23T02:53:38.022Z,265
2014-07-23T02:53:56.351Z,271
2014-07-23T02:54:14.695Z,277
2014-07-23T02:54:33.023Z,283
2014-07-23T02:54:51.353Z,289
2014-07-23T02:55:09.682Z,295
2014-07-23T02:55:28.010Z,301
2014-07-23T02:55:46.338Z,308
2014-07-23T02:56:04.668Z,314
2014-07-23T02:56:23.027Z,320
2014-07-23T02:56:41.355Z,326
2014-07-23T02:56:59.686Z,333
2014-07-23T02:57:18.029Z,339
2014-07-23T02:57:36.357Z,345
2014-07-23T02:57:54.688Z,352
2014-07-23T02:58:13.016Z,358
2014-07-23T02:58:31.344Z,365
2014-07-23T02:58:49.672Z,371
2014-07-23T02:59:08.002Z,378
2014-07-23T02:59:26.330Z,385
2014-07-23T02:59:44.674Z,392
2014-07-23T03:00:03.004Z,398
2014-07-23T03:00:21.332Z,405
2014-07-23T03:00:39.660Z,411
2014-07-23T03:00:57.990Z,418
2014-07-23T03:01:16.319Z,424
2014-07-23T03:01:34.647Z,431
2014-07-23T03:01:52.975Z,437
2014-07-23T03:02:11.305Z,443
2014-07-23T03:02:29.649Z,450
2014-07-23T03:02:47.977Z,456
2014-07-23T03:03:06.307Z,462
2014-07-23T03:03:24.635Z,468
2014-07-23T03:03:42.963Z,474
2014-07-23T03:04:01.277Z,480
2014-07-23T03:04:19.605Z,486
2014-07-23T03:04:37.949Z,491
2014-07-23T03:04:56.261Z,497
2014-07-23T03:05:14.608Z,503
2014-07-23T03:05:32.936Z,508
2014-07-23T03:05:51.264Z,513
2014-07-23T03:06:09.594Z,519
2014-07-23T03:06:27.938Z,524
2014-07-23T03:06:46.250Z,529
2014-07-23T03:07:04.595Z,534
2014-07-23T03:07:22.923Z,539
2014-07-23T03:07:41.251Z,544
2014-07-23T03:07:59.580Z,549
2014-07-23T03:08:17.910Z,554
2014-07-23T03:08:36.238Z,559
2014-07-23T03:08:54.582Z,563
2014-07-23T03:09:12.913Z,568
2014-07-23T03:09:31.444Z,573
2014-07-23T03:09:49.569Z,577
2014-07-23T03:10:07.899Z,582
2014-07-23T03:10:26.227Z,586
2014-07-23T03:10:44.571Z,591
2014-07-23T03:11:03.102Z,595
2014-07-23T03:11:21.229Z,599
2014-07-23T03:11:39.760Z,603
2014-07-23T03:11:57.885Z,608
2014-07-23T03:12:16.231Z,612
2014-07-23T03:12:34.559Z,616
2014-07-23T03:12:52.872Z,620
2014-07-23T03:13:11.231Z,624
2014-07-23T03:13:29.561Z,628
2014-07-23T03:13:47.889Z,631
2014-07-23T03:14:06.218Z,635
2014-07-23T03:14:24.562Z,639
2014-07-23T03:14:42.890Z,643
2014-07-23T03:15:01.219Z,646
2014-07-23T03:15:19.549Z,650
2014-07-23T03:15:37.877Z,654
2014-07-23T03:15:56.221Z,657
2014-07-23T03:16:14.551Z,661
2014-07-23T03:16:32.879Z,664
2014-07-23T03:16:51.426Z,668
2014-07-23T03:17:09.535Z,671
2014-07-23T03:17:27.881Z,674
2014-07-23T03:17:46.209Z,678
2014-07-23T03:18:04.537Z,681
2014-07-23T03:18:22.884Z,684
2014-07-23T03:18:41.212Z,687
2014-07-23T03:18:59.540Z,690
2014-07-23T03:19:17.868Z,693
2014-07-23T03:19:36.214Z,696
2014-07-23T03:19:54.542Z,699
2014-07-23T03:20:12.870Z,702
2014-07-23T03:20:31.199Z,705
2014-07-23T03:20:49.527Z,708
2014-07-23T03:21:07.871Z,711
2014-07-23T03:21:26.201Z,714
2014-07-23T03:21:44.529Z,716
2014-07-23T03:22:02.858Z,719
2014-07-23T03:22:21.186Z,722
2014-07-23T03:22:39.516Z,724
2014-07-23T03:22:57.860Z,727
2014-07-23T03:23:16.188Z,730
2014-07-23T03:23:34.518Z,732
2014-07-23T03:23:52.846Z,734
2014-07-23T03:24:11.174Z,737
2014-07-23T03:24:29.504Z,739
2014-07-23T03:24:47.832Z,742
2014-07-23T03:25:06.160Z,744
2014-07-23T03:25:24.491Z,746
2014-07-23T03:25:42.819Z,749
2014-07-23T03:26:01.162Z,751
2014-07-23T03:26:19.491Z,753
2014-07-23T03:26:37.821Z,755
2014-07-23T03:26:56.164Z,757
2014-07-23T03:27:14.493Z,760
2014-07-23T03:27:32.839Z,762
2014-07-23T03:27:51.167Z,764
2014-07-23T03:28:09.496Z,766
2014-07-23T03:28:27.824Z,768
2014-07-23T03:28:46.168Z,770
2014-07-23T03:29:04.497Z,769
2014-07-23T03:29:22.825Z,769
2014-07-23T03:29:41.170Z,770
2014-07-23T03:29:59.499Z,770
2014-07-23T03:30:17.827Z,770
2014-07-23T03:30:36.155Z,770
2014-07-23T03:30:54.485Z,770
2014-07-23T03:31:12.829Z,770
2014-07-23T03:31:31.157Z,770
2014-07-23T03:31:49.488Z,770
2014-07-23T03:32:07.816Z,770
2014-07-23T03:32:26.144Z,770
2014-07-23T03:32:44.472Z,770
2014-07-23T03:33:02.801Z,770
2014-07-23T03:33:21.145Z,770
2014-07-23T03:33:39.473Z,770
2014-07-23T03:33:57.804Z,770
2014-07-23T03:34:16.148Z,770
2014-07-23T03:34:34.476Z,770
2014-07-23T03:34:52.804Z,770
2014-07-23T03:35:11.134Z,770
2014-07-23T03:35:29.462Z,770
2014-07-23T03:35:47.805Z,770
2014-07-23T03:36:06.136Z,770
2014-07-23T03:36:24.464Z,770
2014-07-23T03:36:42.792Z,770
2014-07-23T03:37:01.122Z,770
2014-07-23T03:37:19.466Z,770
2014-07-23T03:37:37.794Z,770
2014-07-23T03:37:56.122Z,770
2014-07-23T03:38:14.452Z,770
2014-07-23T03:38:32.780Z,770
2014-07-23T03:38:51.108Z,770
2014-07-23T03:39:09.642Z,770
2014-07-23T03:39:27.782Z,770
2014-07-23T03:39:46.110Z,770
2014-07-23T03:40:04.440Z,770
2014-07-23T03:40:22.769Z,770
2014-07-23T03:40:41.112Z,770
2014-07-23T03:40:59.442Z,770
2014-07-23T03:41:17.771Z,770
2014-07-23T03:41:36.099Z,770
2014-07-23T03:41:54.427Z,770
2014-07-23T03:42:12.757Z,770
2014-07-23T03:42:31.101Z,770
2014-07-23T03:42:49.429Z,770
2014-07-23T03:43:07.759Z,770
2014-07-23T03:43:26.087Z,770
2014-07-23T03:43:44.415Z,770
2014-07-23T03:44:02.761Z,770
2014-07-23T03:44:21.089Z,770
2014-07-23T03:44:39.417Z,770
2014-07-23T03:44:57.745Z,770
2014-07-23T03:45:16.091Z,770
2014-07-23T03:45:34.419Z,770
2014-07-23T03:45:52.747Z,770
2014-07-23T03:46:11.077Z,770
2014-07-23T03:46:29.406Z,770
2014-07-23T03:46:47.734Z,770
2014-07-23T03:47:06.078Z,770
2014-07-23T03:47:24.407Z,770
2014-07-23T03:47:42.735Z,770
2014-07-23T03:48:01.094Z,770
2014-07-23T03:48:19.425Z,770
2014-07-23T03:48:37.769Z,770
2014-07-23T03:48:56.097Z,770
2014-07-23T03:49:14.426Z,770
2014-07-23T03:49:32.754Z,770
2014-07-23T03:49:51.098Z,770
2014-07-23T03:50:09.428Z,770
2014-07-23T03:50:27.756Z,770
2014-07-23T03:50:46.084Z,770
2014-07-23T03:51:04.475Z,770
2014-07-23T03:51:22.836Z,770
2014-07-23T03:51:41.165Z,770
2014-07-23T03:51:59.493Z,770
2014-07-23T03:52:17.823Z,770
2014-07-23T03:52:36.151Z,770
2014-07-23T03:52:54.495Z,770
2014-07-23T03:53:12.825Z,770
2014-07-23T03:53:31.153Z,770
2014-07-23T03:53:49.481Z,770
2014-07-23T03:54:07.809Z,770
2014-07-23T03:54:26.139Z,770
2014-07-23T03:54:44.483Z,770
2014-07-23T03:55:02.811Z,770
2014-07-23T03:55:21.141Z,770
2014-07-23T03:55:39.469Z,770
2014-07-23T03:55:57.798Z,770
2014-07-23T03:56:16.143Z,770
2014-07-23T03:56:34.471Z,770
2014-07-23T03:56:52.800Z,770
2014-07-23T03:57:11.143Z,770
2014-07-23T03:57:29.473Z,770
2014-07-23T03:57:47.802Z,770
2014-07-23T03:58:06.130Z,770
2014-07-23T03:58:24.460Z,770
2014-07-23T03:58:42.788Z,770
2014-07-23T03:59:01.132Z,770
2014-07-23T03:59:19.463Z,770
2014-07-23T03:59:37.791Z,770
2014-07-23T03:59:56.119Z,770
2014-07-23T04:00:14.447Z,770
2014-07-23T04:00:32.776Z,770
2014-07-23T04:00:51.120Z,770
2014-07-23T04:01:09.448Z,770
2014-07-23T04:01:27.997Z,770
2014-07-23T04:01:46.122Z,770
2014-07-23T04:02:04.450Z,770
2014-07-23T04:02:22.778Z,770
2014-07-23T04:02:41.109Z,770
2014-07-23T04:02:59.438Z,770
2014-07-23T04:03:17.781Z,770
2014-07-23T04:03:36.110Z,770
2014-07-23T04:03:54.439Z,770
2014-07-23T04:04:12.767Z,770
2014-07-23T04:04:31.095Z,770
2014-07-23T04:04:49.426Z,770
2014-07-23T04:05:07.754Z,770
2014-07-23T04:05:26.098Z,770
2014-07-23T04:05:44.427Z,770
2014-07-23T04:06:02.755Z,770
2014-07-23T04:06:21.083Z,770
2014-07-23T04:06:39.411Z,770
2014-07-23T04:06:57.741Z,770
2014-07-23T04:07:16.070Z,770
2014-07-23T04:07:34.398Z,770
2014-07-23T04:07:52.728Z,770
2014-07-23T04:08:11.072Z,770
2014-07-23T04:08:29.400Z,770
2014-07-23T04:08:47.728Z,770
2014-07-23T04:09:06.058Z,770
2014-07-23T04:09:24.402Z,770
2014-07-23T04:09:42.730Z,770
2014-07-23T04:10:01.061Z,770
2014-07-23T04:10:19.389Z,770
2014-07-23T04:10:37.717Z,770
2014-07-23T04:10:56.249Z,770
2014-07-23T04:11:14.374Z,770
2014-07-23T04:11:32.718Z,770
2014-07-23T04:11:51.046Z,770
2014-07-23T04:12:09.376Z,770
2014-07-23T04:12:27.705Z,770
2014-07-23T04:12:46.033Z,770
2014-07-23T04:13:04.379Z,770
2014-07-23T04:13:22.708Z,770
2014-07-23T04:13:41.036Z,770
2014-07-23T04:13:59.380Z,770
2014-07-23T04:14:17.709Z,770
2014-07-23T04:14:36.037Z,770
2014-07-23T04:14:54.365Z,770
2014-07-23T04:15:12.695Z,770
2014-07-23T04:15:31.023Z,770
2014-07-23T04:15:49.367Z,770
2014-07-23T04:16:07.775Z,770
2014-07-23T04:16:26.041Z,770
2014-07-23T04:16:44.369Z,770
2014-07-23T04:17:02.699Z,770
2014-07-23T04:17:21.043Z,770
2014-07-23T04:17:39.371Z,770
2014-07-23T04:17:57.699Z,770
2014-07-23T04:18:16.029Z,770
2014-07-23T04:18:34.357Z,770
2014-07-23T04:18:52.685Z,770
2014-07-23T04:19:11.015Z,770
2014-07-23T04:19:29.344Z,770
2014-07-23T04:19:47.672Z,770
2014-07-23T04:20:06.017Z,770
2014-07-23T04:20:24.346Z,770
2014-07-23T04:20:42.689Z,770
2014-07-23T04:21:01.017Z,770
2014-07-23T04:21:19.348Z,770
2014-07-23T04:21:37.676Z,770
2014-07-23T04:21:56.004Z,770
2014-07-23T04:22:14.334Z,770
2014-07-23T04:22:32.662Z,770
2014-07-23T04:22:51.006Z,770